• Join FlightAware (Why Join?)
  • Login
  • US Flag 
12:59AM EDT


 

Airport Tracker/Info


-or-


 

Live Flight TrackerFlight Track Log ✈ N147SW ✈ 16-Apr-2014 ✈ KPIE - KDAL

Flight Track Log - Related Links

Times and Time Zones

All times are in EDT time to prevent confusion due to time zone crossing. See the N147SW flight status page for this flight to view local times or setup timezone preferences in your user account.

Time Position Orientation Groundspeed Altitude Reporting Facility
EDT Latitude Longitude Course Direction KTS MPH feet Rate Location/Type
09:13AM 27.9500 -82.7000 249° West 222 255 1,100  Level Tampa TRACON
09:15AM 27.8908 -82.8747 263° West 463 533 10,300 3,180 Climbing Miami Center
09:16AM 27.8458 -82.9522 237° Southwest 382 440 12,800 2,640 Climbing Miami Center
09:17AM 27.8131 -83.0372 246° West 349 402 15,600 2,520 Climbing Miami Center
09:18AM 27.8256 -83.1364 278° West 303 349 17,900 2,040 Climbing Miami Center
09:19AM 27.8289 -83.2467 272° West 331 381 19,700 1,980 Climbing Miami Center
09:20AM 27.8342 -83.3644 273° West 357 411 21,900 2,520 Climbing Miami Center
09:21AM 27.8372 -83.4772 272° West 365 420 24,800 2,400 Climbing Miami Center
09:22AM 27.8425 -83.5878 273° West 365 420 26,800 1,860 Climbing Miami Center
09:23AM 27.8433 -83.7028 270° West 370 426 28,600 2,280 Climbing Miami Center
09:24AM 27.8486 -83.8108 273° West 365 420 31,400 2,400 Climbing Miami Center
09:25AM 27.8517 -83.9192 272° West 359 413 33,500 1,980 Climbing Miami Center
09:27AM 27.8606 -84.0944 273° West 340 391 36,700 1,620 Climbing Jacksonville Center
09:28AM 27.8575 -84.1906 268° West 322 371 37,900 1,140 Climbing Jacksonville Center
09:29AM 27.8669 -84.2869 276° West 317 365 39,000 1,020 Climbing Jacksonville Center
09:30AM 27.8681 -84.3831 271° West 312 359 40,000 480 Climbing Jacksonville Center
09:31AM 27.8711 -84.4794 272° West 307 353 40,000  Level Jacksonville Center
09:32AM 27.8717 -84.5828 270° West 317 365 40,000  Level Jacksonville Center
09:33AM 27.8703 -84.6931 269° West 330 380 40,000  Level Jacksonville Center
09:34AM 27.8750 -84.8011 273° West 350 403 40,000  Level Jacksonville Center
09:35AM 27.8775 -84.9139 271° West 350 403 40,000  Level Jacksonville Center
09:36AM 27.8797 -85.0289 271° West 362 417 40,000  Level Jacksonville Center
09:37AM 27.8819 -85.1511 271° West 373 429 40,000  Level Jacksonville Center
09:38AM 27.8861 -85.2639 272° West 373 429 40,000  Level Jacksonville Center
09:39AM 27.9217 -85.3750 290° West 368 423 40,000  Level Jacksonville Center
09:40AM 27.9544 -85.4981 287° West 389 448 40,000  Level Jacksonville Center
09:41AM 27.9897 -85.6094 290° West 395 455 40,000  Level Jacksonville Center
09:42AM 28.0247 -85.7303 288° West 395 455 40,000  Level Jacksonville Center
09:43AM 28.0619 -85.8442 290° West 388 447 40,000  Level Jacksonville Center
09:44AM 28.0967 -85.9650 288° West 388 447 40,000  Level Jacksonville Center
09:45AM 28.1333 -86.0839 289° West 395 455 40,000  Level Jacksonville Center
09:46AM 28.1678 -86.2075 288° West 402 463 40,000  Level Jacksonville Center
09:47AM 28.2022 -86.3214 289° West 402 463 40,000  Level Jacksonville Center
09:48AM 28.2386 -86.4453 288° West 402 463 40,000  Level Jacksonville Center
09:49AM 28.2708 -86.5594 288° West 402 463 40,000  Level Jacksonville Center
09:50AM 28.3069 -86.6786 289° West 407 468 40,000  Level Jacksonville Center
09:51AM 28.3392 -86.7858 289° West 400 460 40,000  Level Jacksonville Center
09:52AM 28.3733 -86.9028 288° West 400 460 40,000  Level Jacksonville Center
09:53AM 28.4069 -87.0222 288° West 405 466 40,000  Level Jacksonville Center
09:54AM 28.4464 -87.1519 289° West 397 457 40,000  Level Houston Center
09:55AM 28.4808 -87.2714 288° West 397 457 40,000  Level Houston Center
09:56AM 28.5153 -87.3914 288° West 397 457 40,000  Level Houston Center
09:57AM 28.5503 -87.5125 288° West 398 458 40,000  Level Houston Center
09:58AM 28.5900 -87.6561 288° West 398 458 40,000  Level Houston Center
09:59AM 28.6247 -87.7769 288° West 399 459 40,000  Level Houston Center
10:00AM 28.6597 -87.8961 289° West 399 459 40,000  Level Houston Center
10:01AM 28.6928 -88.0167 287° West 399 459 40,000  Level Houston Center
10:02AM 28.7286 -88.1458 288° West 399 459 40,000  Level Houston Center
10:03AM 28.7925 -88.2539 304° West 415 478 40,000  Level Houston Center
10:04AM 28.8597 -88.3631 305° West 416 479 40,000  Level Houston Center
10:06AM 28.9250 -88.4714 305° West 416 479 40,000  Level Houston Center
10:07AM 29.0036 -88.6011 305° West 416 479 40,000  Level Houston Center
10:08AM 29.0689 -88.7106 304° West 416 479 40,000  Level Houston Center
10:09AM 29.1350 -88.8186 305° West 416 479 40,000  Level Houston Center
10:10AM 29.2006 -88.9283 304° West 416 479 40,000  Level Houston Center
10:11AM 29.2658 -89.0361 305° West 416 479 40,000  Level Houston Center
10:12AM 29.3319 -89.1475 304° West 416 479 40,000  Level Houston Center
10:13AM 29.4111 -89.2797 305° West 417 480 40,000  Level Houston Center
10:14AM 29.4761 -89.3903 304° West 418 481 40,000  Level Houston Center
10:15AM 29.5422 -89.5008 305° West 418 481 40,000  Level Houston Center
10:16AM 29.6100 -89.6144 304° West 425 489 40,000  Level Houston Center
10:17AM 29.6753 -89.7261 304° West 425 489 40,000  Level Houston Center
10:18AM 29.7414 -89.8394 304° West 425 489 40,000  Level Houston Center
10:19AM 29.8217 -89.9744 304° West 425 489 40,000  Level Houston Center
10:20AM 29.8881 -90.0881 304° West 425 489 40,000  Level Houston Center
10:21AM 29.9544 -90.2022 304° West 425 489 40,000  Level Houston Center
10:22AM 30.0211 -90.3167 304° West 427 491 40,000  Level Houston Center
10:23AM 30.0864 -90.4311 303° West 427 491 40,000  Level Houston Center
10:24AM 30.1622 -90.5600 304° West 427 491 40,000  Level Houston Center
10:25AM 30.2281 -90.6742 304° West 427 491 40,000  Level Houston Center
10:26AM 30.2897 -90.7903 302° West 427 491 40,000  Level Houston Center
10:27AM 30.3408 -90.9133 296° West 424 488 40,000  Level Houston Center
10:28AM 30.3942 -91.0347 297° West 424 488 40,000  Level Houston Center
10:29AM 30.4575 -91.1808 297° West 424 488 40,000  Level Houston Center
10:30AM 30.5114 -91.3019 297° West 424 488 40,000  Level Houston Center
10:31AM 30.5622 -91.4247 296° West 424 488 40,000  Level Houston Center
10:32AM 30.6169 -91.5469 298° West 425 489 40,000  Level Houston Center
10:33AM 30.6686 -91.6692 296° West 422 486 40,000  Level Houston Center
10:35AM 30.7219 -91.7908 297° West 423 487 40,000  Level Houston Center
10:36AM 30.7850 -91.9372 297° West 423 487 40,000  Level Houston Center
10:37AM 30.8378 -92.0597 297° West 423 487 40,000  Level Houston Center
10:38AM 30.8897 -92.1822 296° West 423 487 40,000  Level Houston Center
10:39AM 30.9431 -92.3067 297° West 423 487 40,000  Level Houston Center
10:40AM 30.9961 -92.4314 296° West 423 487 40,000  Level Houston Center
10:41AM 31.0575 -92.5781 296° West 424 488 40,000  Level Houston Center
10:42AM 31.1106 -92.7019 297° West 425 489 40,000  Level Houston Center
10:43AM 31.1631 -92.8264 296° West 426 490 40,000  Level Houston Center
10:44AM 31.2147 -92.9506 296° West 426 490 40,000  Level Houston Center
10:45AM 31.2653 -93.0739 296° West 426 490 40,000  Level Houston Center
10:46AM 31.3278 -93.2222 296° West 425 489 40,000  Level Houston Center
10:47AM 31.3742 -93.3333 296° West 425 489 40,000  Level Houston Center
10:48AM 31.4253 -93.4583 296° West 425 489 40,000  Level Houston Center
10:49AM 31.4867 -93.6086 296° West 427 491 40,000  Level Houston Center
10:50AM 31.5383 -93.7328 296° West 426 490 40,000  Level Houston Center
10:51AM 31.5883 -93.8578 295° West 426 490 40,000  Level Houston Center
10:52AM 31.6303 -93.9608 296° West 427 491 40,000  Level Fort Worth Center
10:53AM 31.6806 -94.0858 295° West 426 490 40,000  Level Fort Worth Center
10:54AM 31.7317 -94.2100 296° West 426 490 40,000  Level Fort Worth Center
10:55AM 31.7814 -94.3356 295° West 425 489 40,000 -660 Level Fort Worth Center
10:56AM 31.8303 -94.4544 296° West 429 494 38,700 -1,980 Descending Fort Worth Center
10:57AM 31.8950 -94.6169 295° West 455 524 36,000 -2,400 Descending Fort Worth Center
10:58AM 31.9489 -94.7550 295° West 463 533 33,800 -2,160 Descending Fort Worth Center
10:59AM 32.0017 -94.8900 295° West 456 525 31,600 -2,160 Descending Fort Worth Center
11:00AM 32.0539 -95.0225 295° West 458 527 29,400 -2,400 Descending Fort Worth Center
11:01AM 32.1200 -95.1886 295° West 465 535 26,700 -2,400 Descending Fort Worth Center
11:02AM 32.1739 -95.3267 295° West 465 535 24,500 -2,160 Descending Fort Worth Center
11:03AM 32.2275 -95.4631 295° West 463 533 22,300 -2,100 Descending Fort Worth Center
11:04AM 32.2792 -95.5942 295° West 445 512 20,200 -2,100 Descending Fort Worth Center
11:05AM 32.3278 -95.7217 294° West 431 496 18,000 -1,980 Descending Fort Worth Center
11:06AM 32.3767 -95.8447 295° West 420 483 16,200 -1,980 Descending Fort Worth Center
11:07AM 32.4314 -95.9883 294° West 400 460 14,000 -1,980 Descending Fort Worth Center
11:08AM 32.4772 -96.1044 295° West 390 449 12,200 -1,860 Descending Fort Worth Center
11:09AM 32.5236 -96.2281 294° West 384 442 10,200 -1,560 Descending Fort Worth Center
11:10AM 32.5664 -96.3417 294° West 382 440 9,000 -720 Descending Fort Worth Center
11:11AM 32.6181 -96.4275 306° West 291 335 8,700 -900 Descending Fort Worth Center
11:13AM 32.6611 -96.5022 304° West 280 322 7,200 -1,260 Descending Fort Worth Center
11:14AM 32.7219 -96.5628 320° Northwest 289 333 6,100 -1,080 Descending Fort Worth Center
11:15AM 32.7889 -96.6300 320° Northwest 291 335 5,000 -540 Descending Fort Worth Center
11:16AM 32.8500 -96.6992 316° Northwest 299 344 5,000 -480 Level Fort Worth Center
11:17AM 32.9067 -96.7603 318° Northwest 275 316 4,100 -1,020 Descending Fort Worth Center
11:18AM 32.9639 -96.8231 317° Northwest 260 299 3,000 -900 Descending Fort Worth Center
11:19AM 32.9256 -96.8764 229° Southwest 221 254 2,300 -660 Descending Fort Worth Center
11:20AM 32.8761 -96.8803 184° South 179 206 1,700 -840 Descending Fort Worth Center
11:21AM 32.8525 -96.8503 133° Southeast 152 175 600 -1,080 Descending Fort Worth Center
11:23AM 32.8471 -96.8518 180° South  Level Estimated
11:30AM 32.8471 -96.8518 180° South  Level Estimated